Time;durP1;ratioP1;P1;durP2;ratioP2;P2;SDS_P1;SDS_P2;PMS_P1;PMS_P2;Temp;Humidity;BMP_temperature;BMP_pressure;BME280_temperature;BME280_humidity;BME280_pressure;Samples;Min_cycle;Max_cycle;Signal;HPM_P1;HPM_P2
2022/11/25 00:02:09;;;;;;;6.00;4.33;;;;;;;5.72;97.87;94424.94;5031294;28;20593;-77
2022/11/25 00:04:38;;;;;;;6.60;4.40;;;;;;;5.60;98.65;94430.81;5031573;28;20204;-78
2022/11/25 00:07:04;;;;;;;5.47;4.60;;;;;;;5.62;97.57;94436.59;5035352;28;20221;-79
2022/11/25 00:09:31;;;;;;;6.40;4.20;;;;;;;5.66;97.03;94428.28;5037808;28;20202;-78
2022/11/25 00:11:58;;;;;;;7.13;4.30;;;;;;;5.66;96.39;94441.16;5036657;28;20245;-77
2022/11/25 00:14:26;;;;;;;8.67;4.13;;;;;;;5.70;95.99;94444.97;5029016;28;20202;-77
2022/11/25 00:16:53;;;;;;;8.70;4.70;;;;;;;5.71;95.92;94441.38;5033712;28;20195;-77
2022/11/25 00:19:20;;;;;;;5.90;4.30;;;;;;;5.76;95.81;94445.97;5032558;28;20206;-78
2022/11/25 00:21:47;;;;;;;5.77;4.10;;;;;;;5.71;95.79;94440.59;5031648;28;20208;-78
2022/11/25 00:24:15;;;;;;;6.93;4.33;;;;;;;5.68;96.50;94444.34;5030950;28;20222;-78
2022/11/25 00:26:42;;;;;;;6.70;4.50;;;;;;;5.76;95.56;94451.13;5034361;28;20189;-76
2022/11/25 00:29:11;;;;;;;5.40;4.10;;;;;;;5.81;95.85;94453.91;5038356;28;20200;-78
2022/11/25 00:31:41;;;;;;;6.60;4.90;;;;;;;5.81;96.73;94453.13;5036996;28;20231;-77
2022/11/25 00:34:11;;;;;;;8.37;5.10;;;;;;;5.82;96.52;94459.88;5036894;28;20191;-76
2022/11/25 00:36:38;;;;;;;8.40;4.67;;;;;;;5.56;96.75;94414.19;5030043;28;20211;-76
2022/11/25 00:39:09;;;;;;;8.37;5.03;;;;;;;5.62;98.27;94436.59;5030870;28;20243;-76
2022/11/25 00:44:37;;;;;;;7.83;5.17;;;;;;;5.60;98.74;94447.09;5031665;28;20801;-76
2022/11/25 00:47:08;;;;;;;8.30;4.87;;;;;;;5.67;98.79;94439.41;5040753;28;20205;-77
2022/11/25 00:49:35;;;;;;;6.17;4.83;;;;;;;5.67;98.41;94444.53;5034239;28;20189;-76
2022/11/25 00:52:03;;;;;;;7.00;4.83;;;;;;;5.67;99.25;94440.19;5032744;28;20198;-76
2022/11/25 00:54:30;;;;;;;9.00;4.67;;;;;;;5.69;98.92;94445.13;5032260;28;20206;-77
2022/11/25 00:56:57;;;;;;;6.80;4.67;;;;;;;5.60;98.23;94441.94;5033047;28;20215;-76
2022/11/25 00:59:25;;;;;;;7.53;4.63;;;;;;;5.48;98.32;94427.25;5031321;28;20654;-77
2022/11/25 01:01:52;;;;;;;6.93;4.60;;;;;;;5.65;97.90;94452.50;5032127;28;20575;-77
2022/11/25 01:04:20;;;;;;;6.30;4.37;;;;;;;5.69;97.86;94453.69;5035348;28;20201;-77
2022/11/25 01:06:47;;;;;;;9.07;4.97;;;;;;;5.60;98.45;94449.66;5032230;28;20213;-77
2022/11/25 01:09:14;;;;;;;5.33;4.47;;;;;;;5.59;98.68;94453.25;5033174;28;20208;-76
2022/11/25 01:11:41;;;;;;;6.70;4.53;;;;;;;5.65;98.60;94447.34;5030236;28;20696;-77
2022/11/25 01:14:08;;;;;;;6.17;4.67;;;;;;;5.64;98.53;94448.31;5032441;28;20206;-77
2022/11/25 01:16:35;;;;;;;5.67;4.50;;;;;;;5.70;97.71;94452.69;5032988;28;20549;-77
2022/11/25 01:19:02;;;;;;;8.17;5.40;;;;;;;5.63;97.65;94436.41;5029890;28;20681;-77
2022/11/25 01:21:33;;;;;;;9.63;4.97;;;;;;;5.61;98.14;94446.13;5030799;28;20192;-76
2022/11/25 01:24:00;;;;;;;5.73;4.47;;;;;;;5.46;98.65;94442.88;5035053;28;20196;-77
2022/11/25 01:26:28;;;;;;;8.40;4.90;;;;;;;5.48;99.72;94446.03;5037002;28;20200;-77
2022/11/25 01:28:56;;;;;;;6.40;4.40;;;;;;;5.49;98.94;94446.84;5033247;28;20863;-76
2022/11/25 01:31:25;;;;;;;5.63;4.70;;;;;;;5.51;99.01;94443.09;5036964;28;20228;-78
2022/11/25 01:33:55;;;;;;;6.83;4.30;;;;;;;5.51;98.50;94435.34;5033187;28;20632;-77
2022/11/25 01:36:22;;;;;;;5.10;4.37;;;;;;;5.47;99.55;94436.75;5037105;28;20662;-77
2022/11/25 01:38:53;;;;;;;5.90;4.33;;;;;;;5.55;98.94;94423.69;5035460;28;20551;-77
2022/11/25 01:41:21;;;;;;;6.43;4.17;;;;;;;5.58;98.31;94419.94;5032922;28;20695;-77
2022/11/25 01:44:10;;;;;;;6.57;4.53;;;;;;;5.66;97.17;94423.13;5033668;28;20203;-76
2022/11/25 01:46:52;;;;;;;6.13;4.30;;;;;;;5.78;95.56;94417.41;5032384;28;20205;-76
2022/11/25 01:49:24;;;;;;;7.30;4.37;;;;;;;5.76;94.97;94415.03;5035482;28;20191;-76
2022/11/25 01:51:56;;;;;;;4.23;3.27;;;;;;;5.69;95.25;94420.16;5034314;28;20196;-76
2022/11/25 01:54:28;;;;;;;5.43;3.93;;;;;;;5.64;95.37;94403.69;5030736;28;20212;-77
2022/11/25 01:57:01;;;;;;;5.00;3.80;;;;;;;5.73;95.31;94402.53;5036863;28;20197;-77
2022/11/25 01:59:29;;;;;;;7.27;4.13;;;;;;;5.82;94.71;94405.72;5032222;28;20200;-78
2022/11/25 02:01:58;;;;;;;5.67;3.20;;;;;;;5.91;92.64;94410.56;5029708;28;20202;-76
2022/11/25 02:04:31;;;;;;;5.33;3.57;;;;;;;5.80;93.70;94412.88;5029819;28;20202;-76
2022/11/25 02:07:03;;;;;;;3.80;3.40;;;;;;;5.76;93.70;94419.41;5032094;28;20270;-77
2022/11/25 02:09:31;;;;;;;5.00;3.93;;;;;;;5.82;94.15;94426.34;5040528;28;20195;-77
2022/11/25 02:11:58;;;;;;;5.47;3.67;;;;;;;5.83;94.09;94426.16;5040215;28;20213;-76
2022/11/25 02:14:26;;;;;;;5.37;4.07;;;;;;;5.82;93.87;94416.84;5040040;28;20195;-76
2022/11/25 02:16:53;;;;;;;4.40;3.60;;;;;;;5.89;93.43;94432.38;5039679;28;20220;-76
2022/11/25 02:19:24;;;;;;;5.83;3.60;;;;;;;5.93;93.51;94428.38;5033717;28;20204;-75
2022/11/25 02:21:55;;;;;;;6.20;3.40;;;;;;;5.88;92.76;94430.75;5033859;28;20196;-75
2022/11/25 02:24:30;;;;;;;4.77;3.50;;;;;;;5.94;92.37;94430.00;5036123;28;20200;-75
2022/11/25 02:26:58;;;;;;;5.03;3.47;;;;;;;5.95;91.85;94437.53;5037046;28;20289;-75
2022/11/25 02:29:26;;;;;;;4.53;3.33;;;;;;;5.88;91.89;94428.19;5035277;28;20736;-76
2022/11/25 02:31:53;;;;;;;5.30;3.17;;;;;;;5.88;91.47;94421.25;5032090;28;20242;-76
2022/11/25 02:34:19;;;;;;;4.63;3.50;;;;;;;5.88;91.90;94430.75;5036070;28;20199;-76
2022/11/25 02:36:46;;;;;;;5.30;3.43;;;;;;;5.83;91.89;94431.31;5034977;28;20208;-75
2022/11/25 02:39:13;;;;;;;5.17;3.37;;;;;;;5.91;90.76;94440.69;5036345;28;20204;-76
2022/11/25 02:41:43;;;;;;;4.30;3.40;;;;;;;5.87;91.21;94435.13;5035546;28;20234;-75
2022/11/25 02:44:12;;;;;;;5.03;3.53;;;;;;;5.93;90.59;94436.13;5036671;28;20197;-76
2022/11/25 02:46:39;;;;;;;4.17;3.50;;;;;;;5.97;89.94;94439.91;5032513;28;20254;-76
2022/11/25 02:49:06;;;;;;;5.03;3.87;;;;;;;5.96;90.48;94433.16;5033069;28;20710;-75
2022/11/25 02:51:33;;;;;;;4.93;3.50;;;;;;;5.87;91.24;94436.91;5036147;28;20201;-77
2022/11/25 02:54:00;;;;;;;5.07;3.57;;;;;;;5.93;91.12;94443.88;5039464;28;20224;-78
2022/11/25 02:56:30;;;;;;;5.37;4.17;;;;;;;5.97;90.53;94443.31;5042846;28;20200;-77
2022/11/25 02:58:58;;;;;;;4.93;3.60;;;;;;;5.79;91.25;94452.53;5042236;28;20637;-77
2022/11/25 03:01:26;;;;;;;5.23;3.50;;;;;;;5.74;92.41;94448.72;5034167;28;20199;-77
2022/11/25 03:03:53;;;;;;;4.77;3.77;;;;;;;5.72;92.79;94445.56;5038364;28;20218;-77
2022/11/25 03:06:20;;;;;;;5.27;3.77;;;;;;;5.81;92.69;94461.66;5042805;28;20204;-76
2022/11/25 03:08:47;;;;;;;4.37;3.60;;;;;;;5.81;92.51;94456.50;5034729;28;20232;-76
2022/11/25 03:11:14;;;;;;;7.93;4.00;;;;;;;5.81;93.31;94459.06;5034397;28;21115;-78
2022/11/25 03:13:41;;;;;;;5.00;3.90;;;;;;;5.73;93.69;94466.97;5032465;28;20206;-77
2022/11/25 03:16:08;;;;;;;5.23;3.50;;;;;;;5.62;94.11;94458.03;5032863;28;20209;-77
2022/11/25 03:18:36;;;;;;;7.17;4.20;;;;;;;5.67;94.50;94468.53;5040251;28;20200;-76
2022/11/25 03:21:03;;;;;;;5.37;4.00;;;;;;;5.67;95.25;94468.53;5034967;28;20203;-77
2022/11/25 03:23:30;;;;;;;4.83;4.20;;;;;;;5.62;95.52;94460.59;5038744;28;20195;-76
2022/11/25 03:25:57;;;;;;;5.13;4.00;;;;;;;5.54;96.33;94452.25;5041988;28;20235;-77
2022/11/25 03:28:24;;;;;;;7.27;4.43;;;;;;;5.53;97.14;94472.06;5045257;28;20216;-77
2022/11/25 03:30:51;;;;;;;6.07;4.13;;;;;;;5.58;96.70;94467.13;5039220;28;20196;-76
2022/11/25 03:33:18;;;;;;;6.47;4.40;;;;;;;5.59;97.62;94468.72;5037428;28;20608;-76
2022/11/25 03:35:48;;;;;;;6.47;4.70;;;;;;;5.58;97.41;94480.00;5033972;28;20207;-77
2022/11/25 03:38:15;;;;;;;7.63;4.90;;;;;;;5.47;99.27;94477.16;5035342;28;20211;-76
2022/11/25 03:40:41;;;;;;;6.03;4.63;;;;;;;5.38;99.88;94492.00;5035252;28;20600;-76
2022/11/25 03:43:08;;;;;;;9.13;5.23;;;;;;;5.48;100.00;94476.19;5031975;28;20606;-76
2022/11/25 03:45:35;;;;;;;5.70;4.10;;;;;;;5.45;100.00;94485.09;5035450;28;20206;-76
2022/11/25 03:48:02;;;;;;;8.07;5.30;;;;;;;5.47;100.00;94477.97;5031196;28;20226;-76
2022/11/25 03:50:28;;;;;;;6.33;4.70;;;;;;;5.45;100.00;94484.31;5039088;28;20203;-76
2022/11/25 03:52:57;;;;;;;7.60;5.20;;;;;;;5.43;100.00;94494.00;5039184;28;20207;-77
2022/11/25 03:55:23;;;;;;;6.80;4.70;;;;;;;5.38;100.00;94491.19;5034165;28;20206;-77
2022/11/25 03:57:50;;;;;;;7.43;4.70;;;;;;;5.42;100.00;94492.41;5040146;28;20205;-77
2022/11/25 04:00:17;;;;;;;6.17;4.70;;;;;;;5.34;100.00;94500.31;5040788;28;20202;-76
2022/11/25 04:02:44;;;;;;;7.80;5.13;;;;;;;5.32;100.00;94502.25;5036388;28;20200;-76
2022/11/25 04:05:11;;;;;;;9.67;4.90;;;;;;;5.27;100.00;94512.34;5030297;28;20203;-77
2022/11/25 04:07:38;;;;;;;7.47;4.90;;;;;;;5.23;100.00;94513.69;5034917;28;20671;-77
2022/11/25 04:10:08;;;;;;;7.30;4.67;;;;;;;5.27;100.00;94505.41;5036768;28;20205;-77
2022/11/25 04:12:45;;;;;;;10.40;5.83;;;;;;;5.23;100.00;94517.06;5032994;28;20192;-77
2022/11/25 04:15:12;;;;;;;9.23;6.10;;;;;;;5.29;100.00;94521.47;5028836;28;21907;-77
2022/11/25 04:17:39;;;;;;;7.43;5.20;;;;;;;5.22;100.00;94518.06;5031761;28;20195;-76
2022/11/25 04:20:07;;;;;;;5.40;4.50;;;;;;;5.09;100.00;94500.72;5035013;28;20241;-78
2022/11/25 04:22:34;;;;;;;6.43;4.80;;;;;;;5.14;100.00;94508.69;5035021;28;20272;-76
2022/11/25 04:25:01;;;;;;;6.37;4.53;;;;;;;5.25;100.00;94524.63;5033292;28;20196;-76
2022/11/25 04:27:29;;;;;;;6.87;4.90;;;;;;;5.29;100.00;94523.22;5038532;28;20199;-77
2022/11/25 04:29:56;;;;;;;8.47;4.93;;;;;;;5.24;100.00;94523.00;5032840;28;20252;-77
2022/11/25 04:32:23;;;;;;;5.57;4.50;;;;;;;5.23;100.00;94529.13;5039813;28;20234;-80
2022/11/25 04:34:50;;;;;;;6.37;4.57;;;;;;;5.25;100.00;94522.03;5035197;28;20208;-77
2022/11/25 04:37:17;;;;;;;6.67;4.70;;;;;;;5.21;100.00;94526.75;5030622;28;20203;-79
2022/11/25 04:39:45;;;;;;;6.30;4.20;;;;;;;5.20;100.00;94530.31;5036336;28;20206;-78
2022/11/25 04:44:57;;;;;;;8.47;5.13;;;;;;;5.19;100.00;94535.66;5037194;28;20677;-77
2022/11/25 04:47:24;;;;;;;6.47;4.67;;;;;;;5.21;100.00;94539.66;5037834;28;20192;-78
2022/11/25 04:49:51;;;;;;;7.07;4.90;;;;;;;5.10;100.00;94540.16;5039631;28;20224;-77
2022/11/25 04:52:18;;;;;;;7.37;4.97;;;;;;;5.22;100.00;94543.81;5031319;28;20204;-77
2022/11/25 04:54:45;;;;;;;9.67;6.10;;;;;;;5.24;100.00;94548.78;5035620;28;20223;-79
2022/11/25 04:57:13;;;;;;;7.00;5.20;;;;;;;5.26;100.00;94547.59;5037429;28;20233;-77
2022/11/25 04:59:39;;;;;;;8.77;5.80;;;;;;;5.32;100.00;94554.56;5035273;28;20651;-77
2022/11/25 05:02:13;;;;;;;9.57;5.23;;;;;;;5.28;100.00;94562.88;5033497;28;20279;-77
2022/11/25 05:04:40;;;;;;;10.10;5.63;;;;;;;5.28;100.00;94573.97;5036012;28;20222;-79
2022/11/25 05:07:07;;;;;;;6.83;5.07;;;;;;;5.31;100.00;94570.25;5037503;28;20197;-80
2022/11/25 05:09:34;;;;;;;8.23;5.53;;;;;;;5.35;99.57;94572.25;5035202;28;20269;-78
2022/11/25 05:12:01;;;;;;;5.60;4.17;;;;;;;5.31;99.82;94573.59;5032725;28;20203;-79
2022/11/25 05:14:28;;;;;;;7.57;4.00;;;;;;;5.15;99.97;94571.28;5031134;28;20204;-80
2022/11/25 05:16:54;;;;;;;5.73;4.07;;;;;;;5.16;99.75;94593.50;5033067;28;20195;-80
2022/11/25 05:19:23;;;;;;;6.20;4.20;;;;;;;5.23;99.36;94596.13;5034801;28;20207;-80
2022/11/25 05:21:49;;;;;;;7.27;4.40;;;;;;;5.24;99.94;94601.09;5034368;28;20686;-80
2022/11/25 05:24:16;;;;;;;5.87;3.87;;;;;;;5.25;98.58;94604.47;5037594;28;20653;-80
2022/11/25 05:26:43;;;;;;;6.20;4.20;;;;;;;5.22;99.16;94608.22;5032843;28;20897;-80
2022/11/25 05:29:10;;;;;;;7.27;4.00;;;;;;;5.30;97.63;94613.22;5034997;28;20273;-80
2022/11/25 05:31:37;;;;;;;6.93;4.57;;;;;;;5.31;98.24;94619.97;5032925;28;20230;-80
2022/11/25 05:34:04;;;;;;;5.10;3.53;;;;;;;5.28;98.30;94616.97;5032768;28;20575;-79
2022/11/25 05:36:32;;;;;;;6.17;4.10;;;;;;;5.27;98.25;94628.25;5030923;28;20200;-80
2022/11/25 05:38:59;;;;;;;6.73;4.47;;;;;;;5.29;98.08;94632.22;5036731;28;20257;-79
2022/11/25 05:41:27;;;;;;;5.60;3.93;;;;;;;5.34;97.79;94640.19;5030630;28;20217;-79
2022/11/25 05:43:54;;;;;;;7.20;4.97;;;;;;;5.33;98.21;94642.97;5032133;28;20203;-81
2022/11/25 05:46:21;;;;;;;7.27;5.00;;;;;;;5.28;97.37;94651.25;5038931;28;20214;-81
2022/11/25 05:48:47;;;;;;;8.13;4.93;;;;;;;5.32;96.53;94651.66;5033661;28;20219;-80
2022/11/25 05:51:14;;;;;;;7.37;5.07;;;;;;;5.33;97.01;94664.38;5032383;28;20202;-80
2022/11/25 05:53:42;;;;;;;8.30;5.47;;;;;;;5.32;97.57;94652.47;5031336;28;20585;-80
2022/11/25 05:56:10;;;;;;;9.93;5.93;;;;;;;5.36;96.70;94653.72;5036519;28;20202;-80
2022/11/25 05:58:37;;;;;;;10.63;5.93;;;;;;;5.39;96.04;94663.66;5034380;28;20194;-82
2022/11/25 06:01:07;;;;;;;7.57;5.13;;;;;;;5.53;95.05;94654.22;5032365;28;20946;-79
2022/11/25 06:03:34;;;;;;;6.87;5.00;;;;;;;5.55;93.82;94663.38;5036228;28;20736;-77
2022/11/25 06:06:01;;;;;;;11.27;5.87;;;;;;;5.64;94.43;94667.41;5029948;28;20216;-77
2022/11/25 06:08:28;;;;;;;9.63;5.80;;;;;;;5.64;93.74;94667.41;5012452;28;20756;-77
2022/11/25 06:10:56;;;;;;;13.23;5.63;;;;;;;5.65;93.76;94681.91;5030021;28;20202;-77
2022/11/25 06:13:24;;;;;;;8.10;5.50;;;;;;;5.62;93.33;94658.28;5032444;28;20606;-78
2022/11/25 06:15:50;;;;;;;11.47;4.47;;;;;;;5.75;92.84;94694.44;5030282;28;20205;-78
2022/11/25 06:18:18;;;;;;;6.97;4.57;;;;;;;5.80;92.76;94686.16;5031084;28;20206;-78
2022/11/25 06:20:45;;;;;;;7.60;5.10;;;;;;;5.77;92.40;94689.13;5034291;28;20273;-79
2022/11/25 06:23:12;;;;;;;7.47;5.23;;;;;;;5.81;92.27;94698.06;5030453;28;20204;-78
2022/11/25 06:25:38;;;;;;;7.70;5.47;;;;;;;5.87;92.15;94697.34;5031557;28;20208;-80
2022/11/25 06:28:06;;;;;;;7.13;4.20;;;;;;;5.91;91.10;94689.06;5032835;28;20191;-80
2022/11/25 06:30:33;;;;;;;6.33;4.67;;;;;;;5.95;90.92;94707.50;5034316;28;20222;-80
2022/11/25 06:33:00;;;;;;;9.20;5.83;;;;;;;5.93;90.91;94714.66;5029739;28;20241;-81
2022/11/25 06:35:27;;;;;;;7.93;5.13;;;;;;;5.91;90.66;94716.63;5028329;28;20211;-81
2022/11/25 06:37:54;;;;;;;11.37;6.30;;;;;;;5.89;91.10;94721.94;5037636;28;20258;-81
2022/11/25 06:40:20;;;;;;;5.87;4.30;;;;;;;5.84;90.93;94715.72;5034883;28;20194;-80
2022/11/25 06:42:47;;;;;;;4.67;3.77;;;;;;;5.85;90.55;94725.06;5034844;28;20205;-81
2022/11/25 06:45:16;;;;;;;8.87;5.53;;;;;;;5.83;91.28;94707.19;5035401;28;20226;-80
2022/11/25 06:47:42;;;;;;;8.07;5.37;;;;;;;5.98;91.17;94720.81;5037930;28;20208;-81
2022/11/25 06:50:10;;;;;;;7.63;5.17;;;;;;;5.88;91.93;94724.72;5032417;28;20220;-80
2022/11/25 06:52:37;;;;;;;8.27;5.47;;;;;;;5.87;91.97;94729.09;5035750;28;20974;-81
2022/11/25 06:55:04;;;;;;;7.77;5.43;;;;;;;5.95;92.52;94731.53;5033956;28;20219;-79
2022/11/25 06:57:31;;;;;;;9.80;5.97;;;;;;;5.99;91.70;94724.22;5037551;28;20204;-79
2022/11/25 06:59:58;;;;;;;9.27;5.70;;;;;;;5.99;91.90;94727.59;5035017;28;20201;-79
2022/11/25 07:02:26;;;;;;;9.47;6.13;;;;;;;6.06;91.46;94731.00;5034232;28;20576;-78
2022/11/25 07:04:53;;;;;;;10.20;6.70;;;;;;;6.08;91.11;94729.03;5035623;28;20200;-79
2022/11/25 07:07:20;;;;;;;12.00;7.00;;;;;;;5.93;91.82;94728.34;5043881;28;20645;-78
2022/11/25 07:09:47;;;;;;;8.40;6.10;;;;;;;5.95;91.81;94731.53;5038152;28;20238;-79
2022/11/25 07:12:14;;;;;;;9.80;6.83;;;;;;;5.99;91.98;94729.38;5035725;28;20228;-79
2022/11/25 07:14:41;;;;;;;7.30;5.50;;;;;;;6.00;91.53;94725.81;5033991;28;20266;-78
2022/11/25 07:17:07;;;;;;;10.10;6.40;;;;;;;5.91;91.62;94730.31;5034352;28;20288;-79
2022/11/25 07:19:36;;;;;;;14.17;7.00;;;;;;;5.94;91.40;94734.31;5038524;28;20189;-78
2022/11/25 07:22:03;;;;;;;9.53;5.77;;;;;;;5.98;91.03;94743.25;5034884;28;20204;-78
2022/11/25 07:24:29;;;;;;;6.77;4.87;;;;;;;5.87;91.04;94734.25;5032296;28;20769;-78
2022/11/25 07:26:56;;;;;;;6.23;4.93;;;;;;;5.86;91.47;94745.53;5022980;28;20244;-78
2022/11/25 07:29:23;;;;;;;6.90;4.60;;;;;;;5.82;91.62;94749.44;5031873;28;20234;-78
2022/11/25 07:31:50;;;;;;;9.33;5.23;;;;;;;5.72;92.06;94744.59;5038096;28;20239;-78
2022/11/25 07:34:19;;;;;;;7.37;5.10;;;;;;;5.75;91.29;94740.84;5039514;28;20201;-78
2022/11/25 07:36:48;;;;;;;9.10;6.10;;;;;;;5.77;91.55;94745.84;5034897;28;20332;-78
2022/11/25 07:39:17;;;;;;;10.23;6.70;;;;;;;5.67;91.97;94738.41;5038336;28;20833;-78
2022/11/25 07:41:44;;;;;;;7.80;5.53;;;;;;;5.74;92.15;94734.13;5036863;28;20204;-78
2022/11/25 07:44:14;;;;;;;7.70;5.77;;;;;;;5.78;91.80;94750.00;5039426;28;20674;-78
2022/11/25 07:46:42;;;;;;;9.50;6.33;;;;;;;5.82;91.37;94754.59;5037551;28;20255;-78
2022/11/25 07:49:11;;;;;;;12.27;7.10;;;;;;;5.83;91.07;94758.75;5031347;28;20224;-77
2022/11/25 07:51:40;;;;;;;8.00;5.10;;;;;;;5.92;90.24;94760.25;5032101;28;20549;-77
2022/11/25 07:54:10;;;;;;;9.33;5.20;;;;;;;5.85;90.33;94748.28;5039212;28;20200;-78
2022/11/25 07:56:39;;;;;;;8.87;5.50;;;;;;;5.97;90.42;94751.97;5036726;28;20199;-77
2022/11/25 07:59:08;;;;;;;9.13;5.90;;;;;;;6.03;90.71;94766.72;5033753;28;20566;-78
2022/11/25 08:01:34;;;;;;;10.13;5.60;;;;;;;6.07;89.92;94755.81;5029827;28;20203;-78
2022/11/25 08:04:02;;;;;;;8.37;5.50;;;;;;;6.08;88.85;94767.75;5036382;28;20209;-78
2022/11/25 08:06:29;;;;;;;7.97;5.63;;;;;;;6.14;88.63;94772.16;5033063;28;20605;-78
2022/11/25 08:08:57;;;;;;;10.03;5.27;;;;;;;6.14;88.61;94758.44;5032634;28;20747;-77
2022/11/25 08:11:27;;;;;;;6.80;5.03;;;;;;;6.12;89.54;94776.69;5039373;28;20193;-79
2022/11/25 08:13:55;;;;;;;9.27;5.67;;;;;;;6.14;89.75;94771.34;5033076;28;20202;-77
2022/11/25 08:16:26;;;;;;;10.63;6.33;;;;;;;6.24;89.57;94772.59;5032478;28;20666;-78
2022/11/25 08:18:54;;;;;;;8.57;5.13;;;;;;;6.28;89.10;94768.69;5033403;28;20296;-77
2022/11/25 08:21:21;;;;;;;9.33;5.67;;;;;;;6.38;88.53;94773.47;5037054;28;20198;-77
2022/11/25 08:23:48;;;;;;;6.57;4.33;;;;;;;6.31;87.18;94770.09;5037281;28;20212;-78
2022/11/25 08:26:17;;;;;;;7.07;5.50;;;;;;;6.32;88.38;94771.66;5033284;28;20208;-79
2022/11/25 08:28:46;;;;;;;7.30;5.10;;;;;;;6.28;87.95;94767.88;5036402;28;20664;-78
2022/11/25 08:31:16;;;;;;;8.87;5.63;;;;;;;6.46;88.25;94800.94;5037571;28;20288;-78
2022/11/25 08:33:43;;;;;;;7.67;5.00;;;;;;;6.45;87.27;94784.66;5035940;28;20207;-78
2022/11/25 08:36:11;;;;;;;9.00;4.60;;;;;;;6.29;87.40;94775.41;5034394;28;20755;-77
2022/11/25 08:38:39;;;;;;;8.83;5.03;;;;;;;6.47;87.40;94787.03;5038663;28;20198;-77
2022/11/25 08:41:10;;;;;;;9.87;5.70;;;;;;;6.47;87.31;94782.69;5038991;28;20559;-78
2022/11/25 08:43:37;;;;;;;6.37;4.50;;;;;;;6.47;86.26;94790.41;5038457;28;20279;-78
2022/11/25 08:46:09;;;;;;;4.47;4.00;;;;;;;6.49;86.30;94785.88;5029651;28;20208;-78
2022/11/25 08:48:36;;;;;;;8.53;5.10;;;;;;;6.41;87.07;94788.59;5037637;28;20951;-77
2022/11/25 08:51:08;;;;;;;8.00;5.17;;;;;;;6.54;86.38;94786.13;5037081;28;20236;-80
2022/11/25 08:53:35;;;;;;;9.27;5.00;;;;;;;6.55;86.67;94795.44;5035593;28;20196;-78
2022/11/25 08:56:02;;;;;;;8.23;5.67;;;;;;;6.58;87.50;94796.88;5035300;28;20703;-78
2022/11/25 08:58:28;;;;;;;7.60;5.80;;;;;;;6.63;86.96;94790.13;5036556;28;20989;-78
2022/11/25 09:00:55;;;;;;;7.63;5.67;;;;;;;6.76;86.81;94797.13;5036260;28;20207;-78
2022/11/25 09:03:23;;;;;;;7.77;5.17;;;;;;;6.76;86.36;94769.53;5034965;28;20210;-78
2022/11/25 09:05:52;;;;;;;12.20;5.70;;;;;;;6.94;85.80;94794.06;5031240;28;20219;-79
2022/11/25 09:08:19;;;;;;;8.57;5.40;;;;;;;6.97;85.45;94791.09;5034192;28;20209;-77
2022/11/25 09:10:46;;;;;;;9.80;5.40;;;;;;;6.96;85.62;94795.47;5033861;28;20257;-79
2022/11/25 09:13:13;;;;;;;10.47;5.53;;;;;;;7.01;86.59;94792.31;5032105;28;20218;-79
2022/11/25 09:15:40;;;;;;;8.37;5.40;;;;;;;7.05;85.80;94793.50;5028288;28;20206;-79
2022/11/25 09:18:09;;;;;;;6.77;4.87;;;;;;;7.12;84.52;94789.19;5029426;28;20201;-79
2022/11/25 09:20:40;;;;;;;9.10;6.07;;;;;;;7.15;85.42;94794.75;5032206;28;20205;-77
2022/11/25 09:23:08;;;;;;;8.87;5.67;;;;;;;7.27;84.23;94798.34;5036038;28;20233;-80
2022/11/25 09:25:36;;;;;;;8.50;5.93;;;;;;;7.38;84.69;94797.81;5028897;28;20198;-80
2022/11/25 09:28:03;;;;;;;7.00;4.73;;;;;;;7.30;83.80;94803.13;5029280;28;20198;-78
2022/11/25 09:30:30;;;;;;;10.23;5.87;;;;;;;7.33;85.22;94794.22;5030688;28;20231;-79
2022/11/25 09:32:57;;;;;;;10.80;6.73;;;;;;;7.42;83.46;94806.75;5035228;28;20237;-79
2022/11/25 09:35:25;;;;;;;7.27;5.37;;;;;;;7.48;83.13;94810.34;5034663;28;20195;-78
2022/11/25 09:37:53;;;;;;;4.97;3.77;;;;;;;7.48;81.41;94806.97;5032207;28;20197;-78
2022/11/25 09:40:32;;;;;;;7.43;4.40;;;;;;;7.38;81.56;94808.16;5028956;28;20205;-78
2022/11/25 09:48:59;;;;;;;8.10;4.97;;;;;;;8.00;79.90;94830.34;5028299;28;20202;-79
2022/11/25 09:51:34;;;;;;;8.77;5.10;;;;;;;7.73;79.27;94821.78;5029863;28;20206;-80
2022/11/25 09:54:12;;;;;;;7.73;4.80;;;;;;;7.53;80.17;94802.03;5013244;28;20337;-79
2022/11/25 09:56:42;;;;;;;6.77;5.03;;;;;;;7.55;81.31;94798.25;5035643;28;20200;-79
2022/11/25 09:59:18;;;;;;;14.50;6.03;;;;;;;8.36;78.15;94806.72;5032498;28;20210;-79
2022/11/25 10:01:49;;;;;;;7.53;5.07;;;;;;;9.51;73.49;94812.78;5037317;28;20209;-79
2022/11/25 10:04:24;;;;;;;6.93;4.93;;;;;;;9.77;71.51;94809.25;5038844;28;20620;-78
2022/11/25 10:06:55;;;;;;;5.83;4.30;;;;;;;9.32;72.85;94808.47;5030754;28;20210;-78
2022/11/25 10:09:26;;;;;;;8.10;4.93;;;;;;;8.87;74.04;94820.59;5036467;28;20285;-78
2022/11/25 10:11:54;;;;;;;19.47;10.20;;;;;;;9.22;73.57;94808.13;5027483;28;20649;-78
2022/11/25 10:14:34;;;;;;;14.30;10.23;;;;;;;9.12;73.60;94805.94;5033829;28;21182;-79
2022/11/25 10:17:07;;;;;;;9.80;6.70;;;;;;;8.75;74.01;94804.06;5038069;28;20194;-77
2022/11/25 10:19:43;;;;;;;7.87;5.00;;;;;;;9.03;73.00;94807.16;5027142;28;20195;-82
2022/11/25 10:22:24;;;;;;;7.47;4.17;;;;;;;8.64;73.58;94820.22;5029602;28;20218;-79
2022/11/25 10:24:57;;;;;;;7.50;4.37;;;;;;;8.12;75.92;94799.50;5029607;28;20646;-81
2022/11/25 10:27:28;;;;;;;9.37;6.53;;;;;;;7.95;77.08;94794.75;5028567;28;20206;-80
2022/11/25 10:30:03;;;;;;;8.50;5.43;;;;;;;8.97;74.64;94792.47;5039148;28;20230;-80
2022/11/25 10:32:39;;;;;;;8.47;4.30;;;;;;;9.74;70.65;94798.47;5036534;28;20249;-80
2022/11/25 10:35:16;;;;;;;8.00;4.70;;;;;;;10.90;66.06;94813.38;5032477;28;20621;-80
2022/11/25 10:37:45;;;;;;;9.30;3.47;;;;;;;10.81;64.95;94809.47;5033322;28;20218;-79
2022/11/25 10:40:17;;;;;;;7.60;4.60;;;;;;;11.49;63.18;94809.28;5033333;28;20211;-80
2022/11/25 10:42:44;;;;;;;6.37;3.70;;;;;;;12.23;61.39;94803.69;5033116;28;20199;-80
2022/11/25 10:45:12;;;;;;;7.23;4.40;;;;;;;12.81;58.74;94801.91;5037128;28;20209;-81
2022/11/25 10:47:56;;;;;;;5.60;3.07;;;;;;;12.19;59.79;94805.16;5034676;28;20577;-81
2022/11/25 10:50:30;;;;;;;7.30;3.70;;;;;;;13.12;57.99;94813.81;5030904;28;20268;-84
2022/11/25 10:53:00;;;;;;;5.17;3.50;;;;;;;13.32;56.84;94814.25;5030867;28;20198;-81
2022/11/25 10:55:30;;;;;;;5.77;3.60;;;;;;;12.92;57.72;94811.56;5036000;28;20203;-80
2022/11/25 10:57:58;;;;;;;11.30;4.00;;;;;;;12.34;59.18;94816.75;5037471;28;20195;-80
2022/11/25 11:00:28;;;;;;;7.10;4.80;;;;;;;12.63;59.81;94822.09;5032319;28;20230;-80
2022/11/25 11:02:56;;;;;;;8.97;4.50;;;;;;;12.85;58.97;94836.16;5034016;28;20206;-80
2022/11/25 11:05:25;;;;;;;8.27;4.90;;;;;;;12.24;60.15;94826.09;5028301;28;20595;-79
2022/11/25 11:08:18;;;;;;;7.10;4.70;;;;;;;11.74;61.96;94839.44;5031305;28;20220;-81
2022/11/25 11:10:47;;;;;;;10.27;5.10;;;;;;;11.41;62.31;94818.19;5039176;28;20216;-80
2022/11/25 11:13:24;;;;;;;9.07;5.00;;;;;;;11.03;63.97;94843.63;5035899;28;20210;-81
2022/11/25 11:15:53;;;;;;;6.97;4.37;;;;;;;10.47;66.25;94833.38;5034905;28;20301;-80
2022/11/25 11:18:28;;;;;;;5.10;3.57;;;;;;;10.00;69.07;94832.88;5034524;28;20198;-81
2022/11/25 11:21:01;;;;;;;4.40;3.70;;;;;;;9.64;70.09;94827.47;5029171;28;20210;-84
2022/11/25 11:23:29;;;;;;;7.13;4.60;;;;;;;10.00;70.72;94838.06;5037194;28;20194;-81
2022/11/25 11:26:00;;;;;;;7.87;4.47;;;;;;;9.99;69.58;94833.06;5040305;28;20641;-83
2022/11/25 11:28:38;;;;;;;5.80;4.73;;;;;;;9.62;71.13;94837.28;5037673;28;20205;-80
2022/11/25 11:31:08;;;;;;;6.53;4.70;;;;;;;9.54;72.51;94855.69;5033800;28;20203;-81
2022/11/25 11:33:41;;;;;;;7.93;3.87;;;;;;;9.36;72.87;94821.81;5035636;28;21125;-80
2022/11/25 11:36:22;;;;;;;7.23;4.60;;;;;;;9.36;72.60;94832.19;5031062;28;20202;-83
2022/11/25 11:38:55;;;;;;;7.17;3.77;;;;;;;8.90;74.51;94830.53;5036612;28;20217;-81
2022/11/25 11:41:34;;;;;;;5.90;4.27;;;;;;;8.99;75.85;94826.75;5034486;28;20244;-81
2022/11/25 11:44:16;;;;;;;5.80;4.30;;;;;;;9.83;72.80;94831.78;5030850;28;20257;-83
2022/11/25 11:47:10;;;;;;;7.93;5.10;;;;;;;11.09;68.34;94837.56;5034952;28;21012;-82
2022/11/25 11:50:06;;;;;;;6.97;5.20;;;;;;;11.77;65.10;94839.00;5029588;28;20213;-81
2022/11/25 11:52:49;;;;;;;8.87;4.40;;;;;;;12.07;63.55;94841.59;5027397;28;20203;-82
2022/11/25 11:55:32;;;;;;;7.90;5.10;;;;;;;12.31;62.85;94838.03;5040608;28;20207;-82
2022/11/25 11:58:10;;;;;;;9.20;5.27;;;;;;;13.06;60.99;94851.25;5033764;28;20213;-80
2022/11/25 12:00:48;;;;;;;6.70;5.00;;;;;;;13.59;59.28;94845.84;5033753;28;20186;-81